sensor_id;sensor_type;location;lat;lon;timestamp;P1;durP1;ratioP1;P2;durP2;ratioP2
41275;SDS011;27010;47.718;12.912;2022-08-03T00:01:33;2.10;;;0.90;;
41275;SDS011;27010;47.718;12.912;2022-08-03T00:04:36;1.53;;;0.93;;
41275;SDS011;27010;47.718;12.912;2022-08-03T00:07:38;1.00;;;0.90;;
41275;SDS011;27010;47.718;12.912;2022-08-03T00:10:40;3.80;;;1.13;;
41275;SDS011;27010;47.718;12.912;2022-08-03T00:13:43;1.97;;;1.20;;
41275;SDS011;27010;47.718;12.912;2022-08-03T00:16:45;1.23;;;1.13;;
41275;SDS011;27010;47.718;12.912;2022-08-03T00:19:46;1.40;;;1.10;;
41275;SDS011;27010;47.718;12.912;2022-08-03T00:22:49;1.20;;;1.10;;
41275;SDS011;27010;47.718;12.912;2022-08-03T00:25:52;3.37;;;1.60;;
41275;SDS011;27010;47.718;12.912;2022-08-03T00:28:54;2.77;;;1.40;;
41275;SDS011;27010;47.718;12.912;2022-08-03T00:31:56;1.33;;;1.13;;
41275;SDS011;27010;47.718;12.912;2022-08-03T00:35:00;1.03;;;0.90;;
41275;SDS011;27010;47.718;12.912;2022-08-03T00:38:08;1.33;;;1.00;;
41275;SDS011;27010;47.718;12.912;2022-08-03T00:41:10;3.20;;;1.27;;
41275;SDS011;27010;47.718;12.912;2022-08-03T00:44:16;1.27;;;1.17;;
41275;SDS011;27010;47.718;12.912;2022-08-03T00:47:17;1.17;;;0.90;;
41275;SDS011;27010;47.718;12.912;2022-08-03T00:50:21;1.43;;;1.33;;
41275;SDS011;27010;47.718;12.912;2022-08-03T00:53:24;1.20;;;1.10;;
41275;SDS011;27010;47.718;12.912;2022-08-03T00:56:26;1.73;;;1.03;;
41275;SDS011;27010;47.718;12.912;2022-08-03T00:59:28;1.77;;;1.33;;
41275;SDS011;27010;47.718;12.912;2022-08-03T01:02:32;2.17;;;0.80;;
41275;SDS011;27010;47.718;12.912;2022-08-03T01:05:39;1.10;;;1.00;;
41275;SDS011;27010;47.718;12.912;2022-08-03T01:09:18;1.47;;;0.90;;
41275;SDS011;27010;47.718;12.912;2022-08-03T01:12:34;1.87;;;1.10;;
41275;SDS011;27010;47.718;12.912;2022-08-03T01:15:44;1.30;;;1.00;;
41275;SDS011;27010;47.718;12.912;2022-08-03T01:36:11;2.40;;;1.00;;
41275;SDS011;27010;47.718;12.912;2022-08-03T01:39:15;1.57;;;1.00;;
41275;SDS011;27010;47.718;12.912;2022-08-03T01:42:17;1.17;;;1.07;;
41275;SDS011;27010;47.718;12.912;2022-08-03T01:45:20;3.03;;;1.30;;
41275;SDS011;27010;47.718;12.912;2022-08-03T01:48:23;2.37;;;0.80;;
41275;SDS011;27010;47.718;12.912;2022-08-03T01:51:26;3.03;;;0.90;;
41275;SDS011;27010;47.718;12.912;2022-08-03T01:54:50;1.20;;;1.10;;
41275;SDS011;27010;47.718;12.912;2022-08-03T01:57:53;1.10;;;1.00;;
41275;SDS011;27010;47.718;12.912;2022-08-03T02:01:06;1.10;;;0.87;;
41275;SDS011;27010;47.718;12.912;2022-08-03T02:04:10;1.27;;;0.87;;
41275;SDS011;27010;47.718;12.912;2022-08-03T02:07:14;2.90;;;0.90;;
41275;SDS011;27010;47.718;12.912;2022-08-03T02:10:18;1.20;;;0.93;;
41275;SDS011;27010;47.718;12.912;2022-08-03T02:13:35;1.30;;;1.00;;
41275;SDS011;27010;47.718;12.912;2022-08-03T02:16:37;0.83;;;0.80;;
41275;SDS011;27010;47.718;12.912;2022-08-03T02:19:41;1.10;;;1.00;;
41275;SDS011;27010;47.718;12.912;2022-08-03T02:22:44;1.00;;;0.90;;
41275;SDS011;27010;47.718;12.912;2022-08-03T02:25:49;1.57;;;0.87;;
41275;SDS011;27010;47.718;12.912;2022-08-03T02:28:53;1.37;;;1.00;;
41275;SDS011;27010;47.718;12.912;2022-08-03T02:31:57;4.00;;;1.00;;
41275;SDS011;27010;47.718;12.912;2022-08-03T02:35:01;1.67;;;1.03;;
41275;SDS011;27010;47.718;12.912;2022-08-03T02:38:06;2.20;;;1.17;;
41275;SDS011;27010;47.718;12.912;2022-08-03T02:41:12;1.00;;;0.80;;
41275;SDS011;27010;47.718;12.912;2022-08-03T02:44:17;1.10;;;1.00;;
41275;SDS011;27010;47.718;12.912;2022-08-03T02:47:22;2.13;;;1.30;;
41275;SDS011;27010;47.718;12.912;2022-08-03T02:50:24;0.80;;;0.70;;
41275;SDS011;27010;47.718;12.912;2022-08-03T02:53:27;2.27;;;1.00;;
41275;SDS011;27010;47.718;12.912;2022-08-03T02:56:29;1.07;;;0.90;;
41275;SDS011;27010;47.718;12.912;2022-08-03T02:59:31;1.63;;;1.33;;
41275;SDS011;27010;47.718;12.912;2022-08-03T03:02:34;1.43;;;1.07;;
41275;SDS011;27010;47.718;12.912;2022-08-03T03:05:37;1.63;;;1.00;;
41275;SDS011;27010;47.718;12.912;2022-08-03T03:08:58;1.40;;;1.00;;
41275;SDS011;27010;47.718;12.912;2022-08-03T03:12:00;1.20;;;0.90;;
41275;SDS011;27010;47.718;12.912;2022-08-03T03:15:04;2.97;;;0.87;;
41275;SDS011;27010;47.718;12.912;2022-08-03T03:18:07;1.03;;;0.93;;
41275;SDS011;27010;47.718;12.912;2022-08-03T03:21:10;1.40;;;1.03;;
41275;SDS011;27010;47.718;12.912;2022-08-03T03:24:13;1.23;;;1.13;;
41275;SDS011;27010;47.718;12.912;2022-08-03T03:27:16;1.57;;;1.47;;
41275;SDS011;27010;47.718;12.912;2022-08-03T03:30:18;1.50;;;1.20;;
41275;SDS011;27010;47.718;12.912;2022-08-03T03:33:20;1.87;;;1.00;;
41275;SDS011;27010;47.718;12.912;2022-08-03T03:36:23;1.80;;;1.17;;
41275;SDS011;27010;47.718;12.912;2022-08-03T03:39:26;1.33;;;1.23;;
41275;SDS011;27010;47.718;12.912;2022-08-03T03:42:28;2.90;;;1.30;;
41275;SDS011;27010;47.718;12.912;2022-08-03T03:45:33;1.73;;;0.80;;
41275;SDS011;27010;47.718;12.912;2022-08-03T03:48:36;4.33;;;1.20;;
41275;SDS011;27010;47.718;12.912;2022-08-03T03:51:41;3.57;;;1.10;;
41275;SDS011;27010;47.718;12.912;2022-08-03T03:54:43;1.37;;;1.03;;
41275;SDS011;27010;47.718;12.912;2022-08-03T03:57:46;2.67;;;0.93;;
41275;SDS011;27010;47.718;12.912;2022-08-03T04:00:49;2.60;;;1.17;;
41275;SDS011;27010;47.718;12.912;2022-08-03T04:03:52;1.13;;;1.03;;
41275;SDS011;27010;47.718;12.912;2022-08-03T04:06:54;2.40;;;1.00;;
41275;SDS011;27010;47.718;12.912;2022-08-03T04:10:16;1.40;;;1.03;;
41275;SDS011;27010;47.718;12.912;2022-08-03T04:13:42;2.40;;;1.10;;
41275;SDS011;27010;47.718;12.912;2022-08-03T04:16:49;2.40;;;1.10;;
41275;SDS011;27010;47.718;12.912;2022-08-03T04:20:02;1.97;;;1.20;;
41275;SDS011;27010;47.718;12.912;2022-08-03T04:23:05;1.20;;;1.10;;
41275;SDS011;27010;47.718;12.912;2022-08-03T04:26:17;2.13;;;1.50;;
41275;SDS011;27010;47.718;12.912;2022-08-03T04:29:22;1.67;;;1.00;;
41275;SDS011;27010;47.718;12.912;2022-08-03T04:32:25;1.27;;;0.97;;
41275;SDS011;27010;47.718;12.912;2022-08-03T04:35:30;3.10;;;1.43;;
41275;SDS011;27010;47.718;12.912;2022-08-03T04:39:03;1.10;;;1.00;;
41275;SDS011;27010;47.718;12.912;2022-08-03T04:42:10;1.30;;;0.90;;
41275;SDS011;27010;47.718;12.912;2022-08-03T04:45:13;1.53;;;1.00;;
41275;SDS011;27010;47.718;12.912;2022-08-03T04:48:16;2.20;;;1.00;;
41275;SDS011;27010;47.718;12.912;2022-08-03T04:51:20;0.67;;;0.60;;
41275;SDS011;27010;47.718;12.912;2022-08-03T04:54:22;2.47;;;0.87;;
41275;SDS011;27010;47.718;12.912;2022-08-03T04:57:24;1.07;;;0.90;;
41275;SDS011;27010;47.718;12.912;2022-08-03T05:00:26;1.47;;;1.20;;
41275;SDS011;27010;47.718;12.912;2022-08-03T05:03:28;1.50;;;0.93;;
41275;SDS011;27010;47.718;12.912;2022-08-03T05:06:32;0.93;;;0.80;;
41275;SDS011;27010;47.718;12.912;2022-08-03T05:09:35;1.43;;;0.80;;
41275;SDS011;27010;47.718;12.912;2022-08-03T05:12:53;0.80;;;0.80;;
41275;SDS011;27010;47.718;12.912;2022-08-03T05:15:55;0.80;;;0.70;;
41275;SDS011;27010;47.718;12.912;2022-08-03T05:18:57;0.80;;;0.80;;
41275;SDS011;27010;47.718;12.912;2022-08-03T05:21:59;1.53;;;1.10;;
41275;SDS011;27010;47.718;12.912;2022-08-03T05:25:02;0.70;;;0.70;;
41275;SDS011;27010;47.718;12.912;2022-08-03T05:28:04;1.53;;;0.97;;
41275;SDS011;27010;47.718;12.912;2022-08-03T05:31:06;1.23;;;0.90;;
41275;SDS011;27010;47.718;12.912;2022-08-03T05:34:08;1.13;;;1.00;;
41275;SDS011;27010;47.718;12.912;2022-08-03T05:37:10;1.00;;;0.80;;
41275;SDS011;27010;47.718;12.912;2022-08-03T05:40:12;3.63;;;1.10;;
41275;SDS011;27010;47.718;12.912;2022-08-03T05:43:15;1.97;;;0.87;;
41275;SDS011;27010;47.718;12.912;2022-08-03T05:46:17;0.73;;;0.70;;
41275;SDS011;27010;47.718;12.912;2022-08-03T05:49:19;1.63;;;0.70;;
41275;SDS011;27010;47.718;12.912;2022-08-03T05:52:21;0.90;;;0.80;;
41275;SDS011;27010;47.718;12.912;2022-08-03T05:55:23;2.57;;;1.00;;
41275;SDS011;27010;47.718;12.912;2022-08-03T05:58:25;1.10;;;0.90;;
41275;SDS011;27010;47.718;12.912;2022-08-03T06:01:30;0.97;;;0.87;;
41275;SDS011;27010;47.718;12.912;2022-08-03T06:04:34;1.00;;;0.90;;
41275;SDS011;27010;47.718;12.912;2022-08-03T06:07:36;1.33;;;0.90;;
41275;SDS011;27010;47.718;12.912;2022-08-03T06:10:38;1.70;;;0.90;;
41275;SDS011;27010;47.718;12.912;2022-08-03T06:13:40;1.07;;;0.60;;
41275;SDS011;27010;47.718;12.912;2022-08-03T06:16:42;2.10;;;0.80;;
41275;SDS011;27010;47.718;12.912;2022-08-03T06:19:44;1.37;;;1.03;;
41275;SDS011;27010;47.718;12.912;2022-08-03T06:22:47;1.10;;;0.63;;
41275;SDS011;27010;47.718;12.912;2022-08-03T06:26:01;0.80;;;0.70;;
41275;SDS011;27010;47.718;12.912;2022-08-03T06:29:03;0.93;;;0.80;;
41275;SDS011;27010;47.718;12.912;2022-08-03T06:32:08;1.07;;;0.97;;
41275;SDS011;27010;47.718;12.912;2022-08-03T06:35:11;0.80;;;0.77;;
41275;SDS011;27010;47.718;12.912;2022-08-03T06:38:12;0.82;;;0.80;;
41275;SDS011;27010;47.718;12.912;2022-08-03T06:41:14;1.88;;;1.05;;
41275;SDS011;27010;47.718;12.912;2022-08-03T06:44:16;0.93;;;0.90;;
41275;SDS011;27010;47.718;12.912;2022-08-03T06:47:19;2.13;;;1.05;;
41275;SDS011;27010;47.718;12.912;2022-08-03T06:50:21;6.35;;;0.93;;
41275;SDS011;27010;47.718;12.912;2022-08-03T06:53:26;0.57;;;0.57;;
41275;SDS011;27010;47.718;12.912;2022-08-03T06:56:28;0.85;;;0.75;;
41275;SDS011;27010;47.718;12.912;2022-08-03T06:59:30;2.75;;;1.00;;
41275;SDS011;27010;47.718;12.912;2022-08-03T07:02:53;1.00;;;0.90;;
41275;SDS011;27010;47.718;12.912;2022-08-03T07:05:58;1.27;;;0.90;;
41275;SDS011;27010;47.718;12.912;2022-08-03T07:09:03;1.25;;;0.77;;
41275;SDS011;27010;47.718;12.912;2022-08-03T07:12:06;1.60;;;0.77;;
41275;SDS011;27010;47.718;12.912;2022-08-03T07:15:09;4.88;;;0.85;;
41275;SDS011;27010;47.718;12.912;2022-08-03T07:18:31;1.00;;;0.70;;
41275;SDS011;27010;47.718;12.912;2022-08-03T07:21:33;0.82;;;0.70;;
41275;SDS011;27010;47.718;12.912;2022-08-03T07:24:35;0.80;;;0.80;;
41275;SDS011;27010;47.718;12.912;2022-08-03T07:27:37;1.23;;;0.80;;
41275;SDS011;27010;47.718;12.912;2022-08-03T07:30:39;1.25;;;0.75;;
41275;SDS011;27010;47.718;12.912;2022-08-03T07:33:41;0.70;;;0.70;;
41275;SDS011;27010;47.718;12.912;2022-08-03T07:36:43;0.93;;;0.73;;
41275;SDS011;27010;47.718;12.912;2022-08-03T07:39:45;1.08;;;0.90;;
41275;SDS011;27010;47.718;12.912;2022-08-03T07:42:47;1.00;;;0.70;;
41275;SDS011;27010;47.718;12.912;2022-08-03T07:45:53;1.05;;;0.93;;
41275;SDS011;27010;47.718;12.912;2022-08-03T07:48:55;2.08;;;0.52;;
41275;SDS011;27010;47.718;12.912;2022-08-03T07:51:57;1.60;;;0.68;;
41275;SDS011;27010;47.718;12.912;2022-08-03T07:55:21;0.63;;;0.63;;
41275;SDS011;27010;47.718;12.912;2022-08-03T07:58:24;2.20;;;0.80;;
41275;SDS011;27010;47.718;12.912;2022-08-03T08:01:26;1.30;;;0.80;;
41275;SDS011;27010;47.718;12.912;2022-08-03T08:04:28;2.63;;;1.00;;
41275;SDS011;27010;47.718;12.912;2022-08-03T08:07:31;2.35;;;0.90;;
41275;SDS011;27010;47.718;12.912;2022-08-03T08:10:33;2.67;;;1.02;;
41275;SDS011;27010;47.718;12.912;2022-08-03T08:13:35;2.47;;;0.80;;
41275;SDS011;27010;47.718;12.912;2022-08-03T08:16:40;1.10;;;1.00;;
41275;SDS011;27010;47.718;12.912;2022-08-03T08:19:42;1.38;;;0.70;;
41275;SDS011;27010;47.718;12.912;2022-08-03T08:22:52;2.13;;;0.85;;
41275;SDS011;27010;47.718;12.912;2022-08-03T08:25:58;2.92;;;1.00;;
41275;SDS011;27010;47.718;12.912;2022-08-03T08:29:00;2.40;;;0.98;;
41275;SDS011;27010;47.718;12.912;2022-08-03T08:32:02;0.90;;;0.80;;
41275;SDS011;27010;47.718;12.912;2022-08-03T08:35:04;2.60;;;0.80;;
41275;SDS011;27010;47.718;12.912;2022-08-03T08:38:07;0.90;;;0.90;;
41275;SDS011;27010;47.718;12.912;2022-08-03T08:41:12;4.50;;;0.90;;
41275;SDS011;27010;47.718;12.912;2022-08-03T08:44:14;2.60;;;0.90;;
41275;SDS011;27010;47.718;12.912;2022-08-03T08:47:17;1.25;;;0.70;;
41275;SDS011;27010;47.718;12.912;2022-08-03T08:50:20;1.13;;;0.93;;
41275;SDS011;27010;47.718;12.912;2022-08-03T08:53:28;1.17;;;1.05;;
41275;SDS011;27010;47.718;12.912;2022-08-03T08:56:33;1.58;;;1.10;;
41275;SDS011;27010;47.718;12.912;2022-08-03T08:59:37;2.05;;;0.95;;
41275;SDS011;27010;47.718;12.912;2022-08-03T09:02:49;1.17;;;1.08;;
41275;SDS011;27010;47.718;12.912;2022-08-03T09:05:51;2.85;;;1.13;;
41275;SDS011;27010;47.718;12.912;2022-08-03T09:08:56;1.10;;;0.90;;
41275;SDS011;27010;47.718;12.912;2022-08-03T09:11:58;4.38;;;0.95;;
41275;SDS011;27010;47.718;12.912;2022-08-03T09:15:27;2.50;;;0.77;;
41275;SDS011;27010;47.718;12.912;2022-08-03T09:18:31;6.72;;;0.88;;
41275;SDS011;27010;47.718;12.912;2022-08-03T09:21:33;2.85;;;0.80;;
41275;SDS011;27010;47.718;12.912;2022-08-03T09:24:36;1.15;;;0.80;;
41275;SDS011;27010;47.718;12.912;2022-08-03T09:27:42;1.00;;;0.80;;
41275;SDS011;27010;47.718;12.912;2022-08-03T09:30:56;2.70;;;1.20;;
41275;SDS011;27010;47.718;12.912;2022-08-03T09:34:05;0.88;;;0.80;;
41275;SDS011;27010;47.718;12.912;2022-08-03T09:37:13;2.65;;;1.00;;
41275;SDS011;27010;47.718;12.912;2022-08-03T09:40:32;2.90;;;1.20;;
41275;SDS011;27010;47.718;12.912;2022-08-03T09:43:44;1.30;;;1.00;;
41275;SDS011;27010;47.718;12.912;2022-08-03T09:46:52;1.58;;;1.00;;
41275;SDS011;27010;47.718;12.912;2022-08-03T09:50:06;1.98;;;1.30;;
41275;SDS011;27010;47.718;12.912;2022-08-03T09:53:11;1.23;;;0.90;;
41275;SDS011;27010;47.718;12.912;2022-08-03T09:56:14;1.98;;;1.00;;
41275;SDS011;27010;47.718;12.912;2022-08-03T09:59:37;1.23;;;1.00;;
41275;SDS011;27010;47.718;12.912;2022-08-03T10:02:42;1.13;;;1.00;;
41275;SDS011;27010;47.718;12.912;2022-08-03T10:05:46;2.03;;;1.00;;
41275;SDS011;27010;47.718;12.912;2022-08-03T10:09:03;1.70;;;0.88;;
41275;SDS011;27010;47.718;12.912;2022-08-03T10:12:14;1.60;;;0.93;;
41275;SDS011;27010;47.718;12.912;2022-08-03T10:15:17;1.10;;;1.00;;
41275;SDS011;27010;47.718;12.912;2022-08-03T10:18:40;1.10;;;1.00;;
41275;SDS011;27010;47.718;12.912;2022-08-03T10:21:49;1.10;;;1.00;;
41275;SDS011;27010;47.718;12.912;2022-08-03T10:25:11;2.65;;;1.10;;
41275;SDS011;27010;47.718;12.912;2022-08-03T10:28:15;2.50;;;0.90;;
41275;SDS011;27010;47.718;12.912;2022-08-03T10:31:20;0.82;;;0.82;;
41275;SDS011;27010;47.718;12.912;2022-08-03T10:34:24;1.70;;;1.00;;
41275;SDS011;27010;47.718;12.912;2022-08-03T10:37:28;0.82;;;0.77;;
41275;SDS011;27010;47.718;12.912;2022-08-03T10:40:31;0.80;;;0.80;;
41275;SDS011;27010;47.718;12.912;2022-08-03T10:44:04;1.77;;;0.93;;
41275;SDS011;27010;47.718;12.912;2022-08-03T10:47:09;1.63;;;0.90;;
41275;SDS011;27010;47.718;12.912;2022-08-03T10:50:12;3.67;;;1.00;;
41275;SDS011;27010;47.718;12.912;2022-08-03T10:53:15;1.20;;;1.05;;
41275;SDS011;27010;47.718;12.912;2022-08-03T10:59:55;0.98;;;0.70;;
41275;SDS011;27010;47.718;12.912;2022-08-03T11:03:02;0.80;;;0.75;;
41275;SDS011;27010;47.718;12.912;2022-08-03T11:06:20;0.80;;;0.80;;
41275;SDS011;27010;47.718;12.912;2022-08-03T11:09:25;1.25;;;0.88;;
41275;SDS011;27010;47.718;12.912;2022-08-03T11:12:28;1.55;;;0.90;;
41275;SDS011;27010;47.718;12.912;2022-08-03T11:15:33;4.32;;;1.05;;
41275;SDS011;27010;47.718;12.912;2022-08-03T11:18:35;2.38;;;0.88;;
41275;SDS011;27010;47.718;12.912;2022-08-03T11:21:51;1.15;;;0.68;;
41275;SDS011;27010;47.718;12.912;2022-08-03T11:35:06;1.45;;;0.88;;
41275;SDS011;27010;47.718;12.912;2022-08-03T11:38:17;1.13;;;0.85;;
41275;SDS011;27010;47.718;12.912;2022-08-03T11:41:31;1.10;;;0.77;;
41275;SDS011;27010;47.718;12.912;2022-08-03T11:44:45;1.23;;;0.90;;
41275;SDS011;27010;47.718;12.912;2022-08-03T11:47:48;1.67;;;0.90;;
41275;SDS011;27010;47.718;12.912;2022-08-03T11:50:51;0.75;;;0.75;;
41275;SDS011;27010;47.718;12.912;2022-08-03T11:53:54;2.72;;;1.00;;
41275;SDS011;27010;47.718;12.912;2022-08-03T11:56:57;2.22;;;0.75;;
41275;SDS011;27010;47.718;12.912;2022-08-03T11:59:59;1.23;;;1.00;;
41275;SDS011;27010;47.718;12.912;2022-08-03T12:03:03;0.77;;;0.70;;
41275;SDS011;27010;47.718;12.912;2022-08-03T12:06:10;1.35;;;0.70;;
41275;SDS011;27010;47.718;12.912;2022-08-03T12:09:16;0.80;;;0.80;;
41275;SDS011;27010;47.718;12.912;2022-08-03T12:12:22;1.80;;;0.80;;
41275;SDS011;27010;47.718;12.912;2022-08-03T12:15:27;2.08;;;0.75;;
41275;SDS011;27010;47.718;12.912;2022-08-03T12:18:30;0.77;;;0.77;;
41275;SDS011;27010;47.718;12.912;2022-08-03T12:21:33;1.48;;;0.80;;
41275;SDS011;27010;47.718;12.912;2022-08-03T12:24:41;0.95;;;0.80;;
41275;SDS011;27010;47.718;12.912;2022-08-03T12:27:47;2.20;;;0.77;;
41275;SDS011;27010;47.718;12.912;2022-08-03T12:30:49;1.33;;;0.90;;
41275;SDS011;27010;47.718;12.912;2022-08-03T12:34:11;0.80;;;0.80;;
41275;SDS011;27010;47.718;12.912;2022-08-03T12:37:17;2.25;;;0.77;;
41275;SDS011;27010;47.718;12.912;2022-08-03T12:40:29;4.85;;;1.00;;
41275;SDS011;27010;47.718;12.912;2022-08-03T12:43:32;4.00;;;0.85;;
41275;SDS011;27010;47.718;12.912;2022-08-03T12:46:40;2.63;;;0.73;;
41275;SDS011;27010;47.718;12.912;2022-08-03T12:49:49;1.27;;;0.85;;
41275;SDS011;27010;47.718;12.912;2022-08-03T12:52:52;1.00;;;0.82;;
41275;SDS011;27010;47.718;12.912;2022-08-03T12:56:00;1.95;;;0.75;;
41275;SDS011;27010;47.718;12.912;2022-08-03T12:59:25;1.63;;;0.80;;
41275;SDS011;27010;47.718;12.912;2022-08-03T13:02:40;1.02;;;0.90;;
41275;SDS011;27010;47.718;12.912;2022-08-03T13:05:46;0.82;;;0.82;;
41275;SDS011;27010;47.718;12.912;2022-08-03T13:08:49;1.08;;;0.98;;
41275;SDS011;27010;47.718;12.912;2022-08-03T13:12:44;1.17;;;1.08;;
41275;SDS011;27010;47.718;12.912;2022-08-03T13:15:31;3.40;;;0.90;;
41275;SDS011;27010;47.718;12.912;2022-08-03T13:18:44;2.85;;;0.80;;
41275;SDS011;27010;47.718;12.912;2022-08-03T13:21:49;1.38;;;0.75;;
41275;SDS011;27010;47.718;12.912;2022-08-03T13:25:05;1.90;;;0.85;;
41275;SDS011;27010;47.718;12.912;2022-08-03T13:28:07;4.15;;;1.20;;
41275;SDS011;27010;47.718;12.912;2022-08-03T13:31:14;2.60;;;1.17;;
41275;SDS011;27010;47.718;12.912;2022-08-03T13:34:17;1.05;;;0.95;;
41275;SDS011;27010;47.718;12.912;2022-08-03T13:37:24;1.60;;;1.27;;
41275;SDS011;27010;47.718;12.912;2022-08-03T13:40:27;1.00;;;0.95;;
41275;SDS011;27010;47.718;12.912;2022-08-03T13:43:40;1.10;;;1.00;;
41275;SDS011;27010;47.718;12.912;2022-08-03T13:46:42;1.98;;;0.95;;
41275;SDS011;27010;47.718;12.912;2022-08-03T13:49:44;1.20;;;1.10;;
41275;SDS011;27010;47.718;12.912;2022-08-03T13:53:02;1.13;;;1.02;;
41275;SDS011;27010;47.718;12.912;2022-08-03T13:56:04;1.48;;;0.93;;
41275;SDS011;27010;47.718;12.912;2022-08-03T13:59:06;2.63;;;1.02;;
41275;SDS011;27010;47.718;12.912;2022-08-03T14:02:08;1.23;;;0.85;;
41275;SDS011;27010;47.718;12.912;2022-08-03T14:05:10;1.63;;;0.82;;
41275;SDS011;27010;47.718;12.912;2022-08-03T14:08:12;2.05;;;1.00;;
41275;SDS011;27010;47.718;12.912;2022-08-03T14:11:14;2.15;;;1.15;;
41275;SDS011;27010;47.718;12.912;2022-08-03T14:18:13;3.88;;;1.05;;
41275;SDS011;27010;47.718;12.912;2022-08-03T14:21:28;6.10;;;1.00;;
41275;SDS011;27010;47.718;12.912;2022-08-03T14:24:30;1.58;;;1.10;;
41275;SDS011;27010;47.718;12.912;2022-08-03T14:27:32;3.60;;;1.27;;
41275;SDS011;27010;47.718;12.912;2022-08-03T14:30:34;1.45;;;1.17;;
41275;SDS011;27010;47.718;12.912;2022-08-03T14:33:36;2.83;;;1.10;;
41275;SDS011;27010;47.718;12.912;2022-08-03T14:36:38;2.85;;;1.30;;
41275;SDS011;27010;47.718;12.912;2022-08-03T14:39:40;2.30;;;1.13;;
41275;SDS011;27010;47.718;12.912;2022-08-03T14:43:02;1.63;;;0.80;;
41275;SDS011;27010;47.718;12.912;2022-08-03T14:46:04;2.10;;;1.00;;
41275;SDS011;27010;47.718;12.912;2022-08-03T14:49:07;1.38;;;1.02;;
41275;SDS011;27010;47.718;12.912;2022-08-03T14:52:29;1.10;;;1.00;;
41275;SDS011;27010;47.718;12.912;2022-08-03T14:55:31;2.45;;;1.02;;
41275;SDS011;27010;47.718;12.912;2022-08-03T14:58:39;1.20;;;0.95;;
41275;SDS011;27010;47.718;12.912;2022-08-03T15:01:40;1.80;;;1.30;;
41275;SDS011;27010;47.718;12.912;2022-08-03T15:05:03;8.48;;;1.10;;
41275;SDS011;27010;47.718;12.912;2022-08-03T15:08:05;1.35;;;1.00;;
41275;SDS011;27010;47.718;12.912;2022-08-03T15:11:09;1.13;;;1.02;;
41275;SDS011;27010;47.718;12.912;2022-08-03T15:14:11;3.63;;;1.00;;
41275;SDS011;27010;47.718;12.912;2022-08-03T15:17:15;1.30;;;1.10;;
41275;SDS011;27010;47.718;12.912;2022-08-03T15:20:16;2.05;;;1.05;;
41275;SDS011;27010;47.718;12.912;2022-08-03T15:23:36;3.75;;;0.90;;
41275;SDS011;27010;47.718;12.912;2022-08-03T15:26:39;1.67;;;1.00;;
41275;SDS011;27010;47.718;12.912;2022-08-03T15:29:42;1.40;;;1.17;;
41275;SDS011;27010;47.718;12.912;2022-08-03T15:33:04;1.10;;;1.00;;
41275;SDS011;27010;47.718;12.912;2022-08-03T15:36:08;1.10;;;0.90;;
41275;SDS011;27010;47.718;12.912;2022-08-03T15:39:10;12.60;;;1.23;;
41275;SDS011;27010;47.718;12.912;2022-08-03T15:45:39;2.85;;;1.13;;
41275;SDS011;27010;47.718;12.912;2022-08-03T15:48:43;1.20;;;1.10;;
41275;SDS011;27010;47.718;12.912;2022-08-03T15:51:45;1.15;;;1.08;;
41275;SDS011;27010;47.718;12.912;2022-08-03T15:54:48;1.55;;;1.20;;
41275;SDS011;27010;47.718;12.912;2022-08-03T15:57:51;1.70;;;0.90;;
41275;SDS011;27010;47.718;12.912;2022-08-03T16:01:13;5.63;;;1.00;;
41275;SDS011;27010;47.718;12.912;2022-08-03T16:04:20;1.15;;;1.00;;
41275;SDS011;27010;47.718;12.912;2022-08-03T16:07:22;2.58;;;1.38;;
41275;SDS011;27010;47.718;12.912;2022-08-03T16:11:02;1.25;;;1.10;;
41275;SDS011;27010;47.718;12.912;2022-08-03T16:14:05;1.85;;;1.40;;
41275;SDS011;27010;47.718;12.912;2022-08-03T16:17:27;1.67;;;1.15;;
41275;SDS011;27010;47.718;12.912;2022-08-03T16:20:29;3.10;;;1.17;;
41275;SDS011;27010;47.718;12.912;2022-08-03T16:23:35;1.83;;;1.25;;
41275;SDS011;27010;47.718;12.912;2022-08-03T16:26:43;8.93;;;1.75;;
41275;SDS011;27010;47.718;12.912;2022-08-03T16:29:45;1.20;;;1.10;;
41275;SDS011;27010;47.718;12.912;2022-08-03T16:32:47;1.23;;;0.88;;
41275;SDS011;27010;47.718;12.912;2022-08-03T16:35:49;1.08;;;0.98;;
41275;SDS011;27010;47.718;12.912;2022-08-03T16:38:51;1.77;;;0.98;;
41275;SDS011;27010;47.718;12.912;2022-08-03T16:41:53;0.80;;;0.80;;
41275;SDS011;27010;47.718;12.912;2022-08-03T16:45:02;1.13;;;1.02;;
41275;SDS011;27010;47.718;12.912;2022-08-03T16:48:05;1.65;;;1.00;;
41275;SDS011;27010;47.718;12.912;2022-08-03T16:51:08;1.38;;;0.90;;
41275;SDS011;27010;47.718;12.912;2022-08-03T16:54:10;1.38;;;1.10;;
41275;SDS011;27010;47.718;12.912;2022-08-03T16:57:14;2.85;;;1.00;;
41275;SDS011;27010;47.718;12.912;2022-08-03T17:00:16;1.48;;;1.10;;
41275;SDS011;27010;47.718;12.912;2022-08-03T17:03:34;0.82;;;0.70;;
41275;SDS011;27010;47.718;12.912;2022-08-03T17:06:59;1.77;;;1.00;;
41275;SDS011;27010;47.718;12.912;2022-08-03T17:10:03;3.28;;;1.02;;
41275;SDS011;27010;47.718;12.912;2022-08-03T17:13:07;2.30;;;1.55;;
41275;SDS011;27010;47.718;12.912;2022-08-03T17:16:10;1.63;;;1.35;;
41275;SDS011;27010;47.718;12.912;2022-08-03T17:19:16;1.92;;;1.10;;
41275;SDS011;27010;47.718;12.912;2022-08-03T17:22:19;1.67;;;1.10;;
41275;SDS011;27010;47.718;12.912;2022-08-03T17:25:35;2.10;;;1.13;;
41275;SDS011;27010;47.718;12.912;2022-08-03T17:28:58;3.08;;;1.00;;
41275;SDS011;27010;47.718;12.912;2022-08-03T17:32:14;1.20;;;1.10;;
41275;SDS011;27010;47.718;12.912;2022-08-03T17:35:22;3.08;;;1.30;;
41275;SDS011;27010;47.718;12.912;2022-08-03T17:38:37;2.13;;;1.17;;
41275;SDS011;27010;47.718;12.912;2022-08-03T17:41:42;3.03;;;1.08;;
41275;SDS011;27010;47.718;12.912;2022-08-03T17:44:51;1.40;;;1.20;;
41275;SDS011;27010;47.718;12.912;2022-08-03T17:47:53;1.52;;;1.20;;
41275;SDS011;27010;47.718;12.912;2022-08-03T17:50:59;1.17;;;0.95;;
41275;SDS011;27010;47.718;12.912;2022-08-03T18:00:52;2.40;;;1.10;;
41275;SDS011;27010;47.718;12.912;2022-08-03T18:04:37;1.73;;;1.20;;
41275;SDS011;27010;47.718;12.912;2022-08-03T18:07:46;1.83;;;1.35;;
41275;SDS011;27010;47.718;12.912;2022-08-03T18:11:04;1.63;;;1.30;;
41275;SDS011;27010;47.718;12.912;2022-08-03T18:14:19;4.28;;;1.52;;
41275;SDS011;27010;47.718;12.912;2022-08-03T18:17:31;8.15;;;1.75;;
41275;SDS011;27010;47.718;12.912;2022-08-03T18:20:54;2.20;;;1.50;;
41275;SDS011;27010;47.718;12.912;2022-08-03T18:23:59;6.18;;;4.90;;
41275;SDS011;27010;47.718;12.912;2022-08-03T18:27:01;3.08;;;2.78;;
41275;SDS011;27010;47.718;12.912;2022-08-03T18:30:07;13.52;;;7.03;;
41275;SDS011;27010;47.718;12.912;2022-08-03T18:33:13;7.90;;;6.18;;
41275;SDS011;27010;47.718;12.912;2022-08-03T18:36:36;1.52;;;1.40;;
41275;SDS011;27010;47.718;12.912;2022-08-03T18:39:39;4.22;;;1.52;;
41275;SDS011;27010;47.718;12.912;2022-08-03T18:42:53;5.70;;;2.55;;
41275;SDS011;27010;47.718;12.912;2022-08-03T18:45:55;6.85;;;1.58;;
41275;SDS011;27010;47.718;12.912;2022-08-03T18:49:13;15.80;;;11.10;;
41275;SDS011;27010;47.718;12.912;2022-08-03T18:52:28;140.25;;;116.78;;
41275;SDS011;27010;47.718;12.912;2022-08-03T18:55:38;117.38;;;79.65;;
41275;SDS011;27010;47.718;12.912;2022-08-03T19:02:35;22.55;;;15.82;;
41275;SDS011;27010;47.718;12.912;2022-08-03T19:05:53;2.30;;;1.80;;
41275;SDS011;27010;47.718;12.912;2022-08-03T19:09:10;1.42;;;1.30;;
41275;SDS011;27010;47.718;12.912;2022-08-03T19:12:53;2.20;;;1.45;;
41275;SDS011;27010;47.718;12.912;2022-08-03T19:15:56;4.18;;;2.00;;